Time;durP1;ratioP1;P1;durP2;ratioP2;P2;SDS_P1;SDS_P2;PMS_P1;PMS_P2;Temp;Humidity;BMP_temperature;BMP_pressure;BME280_temperature;BME280_humidity;BME280_pressure;Samples;Min_cycle;Max_cycle;Signal;HPM_P1;HPM_P2
2023/01/30 00:01:21;;;;;;;120.38;17.85;;;28.30;68.60;;;;;;5085236;28;20032;-56
2023/01/30 00:03:49;;;;;;;88.35;15.70;;;28.30;68.60;;;;;;5085435;28;20051;-58
2023/01/30 00:06:16;;;;;;;99.05;14.75;;;28.30;68.50;;;;;;5085555;28;20272;-58
2023/01/30 00:08:43;;;;;;;65.57;13.27;;;28.30;68.40;;;;;;5085367;28;20035;-60
2023/01/30 00:11:12;;;;;;;116.90;14.63;;;28.20;68.30;;;;;;5085198;28;20182;-57
2023/01/30 00:13:39;;;;;;;167.18;16.70;;;28.20;68.20;;;;;;5085310;28;20081;-56
2023/01/30 00:16:08;;;;;;;101.80;13.52;;;28.20;68.10;;;;;;5084807;28;20029;-56
2023/01/30 00:18:38;;;;;;;79.30;11.73;;;28.20;68.40;;;;;;5084597;28;20024;-56
2023/01/30 00:21:07;;;;;;;74.93;11.50;;;28.20;68.50;;;;;;5084504;28;20096;-54
2023/01/30 00:23:35;;;;;;;47.67;11.68;;;28.10;68.60;;;;;;5084869;28;20255;-55
2023/01/30 00:26:02;;;;;;;47.97;11.65;;;28.10;68.90;;;;;;5085399;28;20200;-56
2023/01/30 00:28:28;;;;;;;47.83;10.82;;;28.10;69.00;;;;;;5084993;28;20099;-57
2023/01/30 00:30:56;;;;;;;36.50;10.65;;;28.10;69.10;;;;;;5084804;28;20024;-58
2023/01/30 00:33:25;;;;;;;36.20;9.50;;;28.10;69.30;;;;;;5085293;28;20174;-58
2023/01/30 00:35:55;;;;;;;41.35;10.77;;;28.10;69.30;;;;;;5084899;28;20228;-56
2023/01/30 00:38:22;;;;;;;42.47;10.00;;;28.10;69.40;;;;;;5085137;28;20200;-56
2023/01/30 00:40:49;;;;;;;31.05;9.40;;;28.00;69.50;;;;;;5076803;28;20056;-56
2023/01/30 00:48:54;;;;;;;33.70;10.23;;;28.00;69.70;;;;;;5064472;28;20043;-56
2023/01/30 00:51:20;;;;;;;36.13;10.32;;;28.00;69.70;;;;;;5064617;28;20221;-57
2023/01/30 00:53:47;;;;;;;44.22;10.75;;;27.90;69.50;;;;;;5063923;28;20029;-57
2023/01/30 00:56:14;;;;;;;30.70;10.05;;;27.80;69.70;;;;;;5064306;28;20024;-56
2023/01/30 00:58:40;;;;;;;29.48;9.25;;;27.70;70.00;;;;;;5064440;28;20274;-52
2023/01/30 01:01:09;;;;;;;36.35;10.27;;;27.60;70.20;;;;;;5064152;28;20083;-53
2023/01/30 01:03:36;;;;;;;22.73;9.15;;;27.50;70.40;;;;;;5064119;28;20033;-59
2023/01/30 01:06:02;;;;;;;57.47;10.60;;;27.40;70.50;;;;;;5081087;28;20012;-56
2023/01/30 01:08:29;;;;;;;59.65;11.68;;;27.40;70.70;;;;;;5083757;28;20221;-54
2023/01/30 01:10:55;;;;;;;49.55;10.13;;;27.40;70.60;;;;;;5083430;28;20312;-53
2023/01/30 01:13:22;;;;;;;46.53;10.60;;;27.40;70.30;;;;;;5084458;28;20043;-55
2023/01/30 01:15:50;;;;;;;27.60;9.75;;;27.50;70.30;;;;;;5084539;28;20100;-54
2023/01/30 01:18:16;;;;;;;39.35;9.82;;;27.50;70.00;;;;;;5084011;28;20074;-56
2023/01/30 01:20:43;;;;;;;51.33;10.38;;;27.60;69.80;;;;;;5076940;28;20032;-54
2023/01/30 01:23:10;;;;;;;32.22;9.55;;;27.60;69.70;;;;;;5082668;28;20037;-57
2023/01/30 01:25:37;;;;;;;19.05;8.95;;;27.60;69.70;;;;;;5077612;28;20182;-56
2023/01/30 01:28:03;;;;;;;20.75;8.52;;;27.60;69.50;;;;;;5071713;28;20051;-55
2023/01/30 01:30:30;;;;;;;17.13;8.73;;;27.60;69.40;;;;;;5068662;28;20032;-57
2023/01/30 01:32:58;;;;;;;18.85;9.10;;;27.60;69.20;;;;;;5075503;28;20043;-55
2023/01/30 01:35:24;;;;;;;20.10;8.90;;;27.60;69.20;;;;;;5083930;28;20073;-56
2023/01/30 01:37:57;;;;;;;15.93;8.10;;;27.60;69.10;;;;;;5084415;28;20020;-56
2023/01/30 01:43:16;;;;;;;15.10;8.90;;;27.60;69.10;;;;;;5083325;28;20092;-54
2023/01/30 01:45:44;;;;;;;17.67;9.65;;;27.60;69.00;;;;;;5083768;28;20320;-56
2023/01/30 01:48:24;;;;;;;17.35;10.82;;;27.60;68.90;;;;;;5084292;28;20181;-55
2023/01/30 01:51:00;;;;;;;22.63;11.65;;;27.60;69.10;;;;;;5083830;28;20031;-55
2023/01/30 01:53:33;;;;;;;25.55;10.38;;;27.60;69.00;;;;;;5083824;28;20028;-54
2023/01/30 01:56:01;;;;;;;16.15;10.00;;;27.60;69.00;;;;;;5083704;28;20344;-56
2023/01/30 01:58:36;;;;;;;18.48;9.82;;;27.60;69.10;;;;;;5083269;28;20029;-56
2023/01/30 02:01:04;;;;;;;19.73;9.45;;;27.60;69.00;;;;;;5083667;28;20020;-55
2023/01/30 02:03:36;;;;;;;19.90;9.32;;;27.60;69.10;;;;;;5082864;28;20036;-53
2023/01/30 02:06:04;;;;;;;16.35;9.68;;;27.50;68.90;;;;;;5083547;28;20025;-55
2023/01/30 02:08:44;;;;;;;13.23;9.88;;;27.50;68.90;;;;;;5083757;28;20075;-55
2023/01/30 02:11:39;;;;;;;19.67;10.48;;;27.50;68.90;;;;;;5083131;28;20096;-56
2023/01/30 02:14:07;;;;;;;17.02;10.75;;;27.50;69.00;;;;;;5083444;28;20043;-56
2023/01/30 02:16:35;;;;;;;20.83;11.70;;;27.50;69.00;;;;;;5076176;28;20091;-56
2023/01/30 02:19:01;;;;;;;14.88;10.45;;;27.50;69.00;;;;;;5074042;28;20021;-56
2023/01/30 02:22:11;;;;;;;14.23;11.02;;;27.40;68.90;;;;;;5071492;28;20088;-57
2023/01/30 02:25:08;;;;;;;18.90;11.52;;;27.40;68.80;;;;;;5043842;28;20044;-52
2023/01/30 02:28:05;;;;;;;16.52;12.45;;;27.40;68.90;;;;;;5073011;28;20036;-54
2023/01/30 02:30:45;;;;;;;18.13;12.20;;;27.40;68.90;;;;;;5074651;28;20118;-55
2023/01/30 02:33:17;;;;;;;21.48;13.20;;;27.40;69.00;;;;;;5087640;28;20058;-56
2023/01/30 02:36:08;;;;;;;21.90;14.30;;;27.30;69.00;;;;;;5087376;28;20276;-57
2023/01/30 02:38:47;;;;;;;22.58;14.55;;;27.30;69.00;;;;;;5087148;28;20024;-56
2023/01/30 02:41:59;;;;;;;29.75;14.23;;;27.30;69.10;;;;;;5087246;28;20050;-58
2023/01/30 02:44:25;;;;;;;22.58;11.85;;;27.30;69.10;;;;;;5080685;28;20315;-55
2023/01/30 02:47:05;;;;;;;22.08;10.90;;;27.30;69.10;;;;;;5086328;28;20024;-56
2023/01/30 02:49:38;;;;;;;19.65;9.77;;;27.30;69.10;;;;;;5079338;28;20277;-58
2023/01/30 02:52:07;;;;;;;20.55;9.13;;;27.30;69.10;;;;;;5087072;28;20024;-56
2023/01/30 02:54:34;;;;;;;15.93;8.50;;;27.20;69.00;;;;;;5086947;28;20041;-57
2023/01/30 02:57:00;;;;;;;16.30;8.35;;;27.20;68.90;;;;;;5087270;28;20095;-61
2023/01/30 02:59:34;;;;;;;16.67;7.95;;;27.20;68.80;;;;;;5086818;28;20076;-59
2023/01/30 03:02:04;;;;;;;13.25;7.70;;;27.20;68.70;;;;;;5081908;28;20085;-57
2023/01/30 03:04:52;;;;;;;15.45;8.10;;;27.20;68.60;;;;;;5079529;28;20044;-58
2023/01/30 03:07:34;;;;;;;13.68;7.50;;;27.20;68.60;;;;;;5087026;28;20025;-56
2023/01/30 03:10:24;;;;;;;14.38;7.15;;;27.20;68.50;;;;;;5086698;28;20070;-55
2023/01/30 03:12:59;;;;;;;14.25;7.72;;;27.10;68.50;;;;;;5087058;28;20066;-56
2023/01/30 03:15:46;;;;;;;14.77;7.18;;;27.20;68.50;;;;;;5080234;28;20225;-55
2023/01/30 03:18:12;;;;;;;19.48;7.45;;;27.10;68.40;;;;;;5070804;28;20028;-54
2023/01/30 03:20:40;;;;;;;12.95;7.25;;;27.10;68.30;;;;;;5066516;28;20037;-56
2023/01/30 03:23:07;;;;;;;15.02;7.20;;;27.10;68.30;;;;;;5066816;28;20029;-54
2023/01/30 03:25:36;;;;;;;12.15;6.57;;;27.10;68.30;;;;;;5066448;28;20032;-56
2023/01/30 03:28:06;;;;;;;10.38;6.85;;;27.10;68.20;;;;;;5066802;28;20017;-56
2023/01/30 03:30:32;;;;;;;10.00;6.28;;;27.10;68.20;;;;;;5066583;28;20252;-57
2023/01/30 03:32:59;;;;;;;8.93;6.05;;;27.00;68.20;;;;;;5066661;28;20021;-56
2023/01/30 03:35:26;;;;;;;10.15;6.18;;;27.00;68.20;;;;;;5065256;28;20041;-55
2023/01/30 03:37:53;;;;;;;8.85;6.18;;;27.00;68.20;;;;;;5066593;28;20301;-57
2023/01/30 03:40:20;;;;;;;11.35;5.82;;;27.00;68.20;;;;;;5066158;28;20092;-56
2023/01/30 03:42:46;;;;;;;11.18;6.28;;;27.00;68.20;;;;;;5065990;28;20040;-54
2023/01/30 03:45:13;;;;;;;10.73;6.45;;;27.00;68.20;;;;;;5065915;28;20037;-55
2023/01/30 03:47:40;;;;;;;9.88;6.05;;;27.00;68.30;;;;;;5066395;28;20024;-55
2023/01/30 03:50:07;;;;;;;13.18;6.32;;;26.90;68.20;;;;;;5065889;28;20055;-54
2023/01/30 03:52:36;;;;;;;14.27;6.50;;;27.00;68.30;;;;;;5066581;28;20017;-56
2023/01/30 03:55:03;;;;;;;10.10;6.95;;;26.90;68.20;;;;;;5065858;28;20051;-56
2023/01/30 03:57:30;;;;;;;12.02;7.28;;;26.90;68.30;;;;;;5066015;28;20209;-57
2023/01/30 03:59:57;;;;;;;12.82;6.40;;;26.90;68.20;;;;;;5066017;28;20065;-58
2023/01/30 04:02:25;;;;;;;11.35;6.47;;;26.90;68.10;;;;;;5066045;28;20021;-57
2023/01/30 04:04:52;;;;;;;11.93;6.32;;;26.90;68.20;;;;;;5065437;28;20343;-57
2023/01/30 04:07:18;;;;;;;14.07;6.55;;;26.90;68.60;;;;;;5065910;28;20033;-56
2023/01/30 04:09:45;;;;;;;11.95;6.10;;;26.90;68.10;;;;;;5065897;28;20055;-58
2023/01/30 04:12:13;;;;;;;10.20;6.07;;;26.90;68.00;;;;;;5065591;28;20021;-55
2023/01/30 04:14:39;;;;;;;9.00;6.07;;;26.90;68.00;;;;;;5065583;28;20343;-56
2023/01/30 04:17:06;;;;;;;10.63;6.25;;;26.90;68.10;;;;;;5065646;28;20087;-56
2023/01/30 04:19:33;;;;;;;23.83;6.82;;;26.80;67.90;;;;;;5065239;28;20037;-56
2023/01/30 04:21:59;;;;;;;25.23;6.60;;;26.80;67.90;;;;;;5065611;28;20033;-59
2023/01/30 04:24:26;;;;;;;13.60;6.28;;;26.80;67.90;;;;;;5065289;28;20033;-57
2023/01/30 04:26:52;;;;;;;11.10;6.10;;;26.80;67.90;;;;;;5065188;28;20055;-58
2023/01/30 04:29:19;;;;;;;15.35;6.57;;;26.80;67.80;;;;;;5065177;28;20092;-56
2023/01/30 04:31:45;;;;;;;8.20;6.07;;;26.80;67.80;;;;;;5065326;28;20021;-56
2023/01/30 04:34:12;;;;;;;9.55;6.75;;;26.80;67.80;;;;;;5064893;28;20029;-56
2023/01/30 04:36:39;;;;;;;12.40;6.55;;;26.80;67.90;;;;;;5065333;28;20039;-56
2023/01/30 04:39:05;;;;;;;8.63;6.70;;;26.80;67.80;;;;;;5064915;28;20071;-55
2023/01/30 04:41:33;;;;;;;8.50;6.32;;;26.80;67.80;;;;;;5064971;28;20021;-56
2023/01/30 04:43:59;;;;;;;8.05;6.30;;;26.70;67.70;;;;;;5064805;28;20067;-56
2023/01/30 04:46:26;;;;;;;10.63;6.40;;;26.70;67.60;;;;;;5065237;28;20012;-58
2023/01/30 04:48:53;;;;;;;10.20;7.85;;;26.70;67.60;;;;;;5064814;28;20029;-59
2023/01/30 04:51:19;;;;;;;13.25;7.45;;;26.70;67.60;;;;;;5064809;28;20237;-59
2023/01/30 04:53:46;;;;;;;10.68;6.55;;;26.70;67.50;;;;;;5064711;28;20070;-58
2023/01/30 04:56:12;;;;;;;12.00;6.53;;;26.70;67.50;;;;;;5064491;28;20087;-58
2023/01/30 04:58:39;;;;;;;11.30;5.70;;;26.70;67.50;;;;;;5064683;28;20036;-55
2023/01/30 05:01:23;;;;;;;8.52;5.28;;;26.60;67.50;;;;;;5064617;28;20260;-53
2023/01/30 05:03:54;;;;;;;10.10;5.22;;;26.70;67.60;;;;;;5064402;28;20079;-54
2023/01/30 05:06:21;;;;;;;10.45;5.20;;;26.60;67.40;;;;;;5064588;28;20068;-58
2023/01/30 05:08:50;;;;;;;10.60;5.57;;;26.60;67.40;;;;;;5064428;28;20106;-59
2023/01/30 05:11:17;;;;;;;5.82;4.70;;;26.60;67.30;;;;;;5064267;28;20017;-55
2023/01/30 05:13:44;;;;;;;15.52;5.40;;;26.60;67.10;;;;;;5064466;28;20059;-56
2023/01/30 05:16:11;;;;;;;8.65;5.20;;;26.60;67.10;;;;;;5064231;28;20025;-56
2023/01/30 05:18:38;;;;;;;9.65;4.80;;;26.60;66.90;;;;;;5064530;28;20098;-56
2023/01/30 05:21:14;;;;;;;15.90;4.85;;;26.60;66.90;;;;;;5064241;28;20087;-57
2023/01/30 05:23:41;;;;;;;10.55;5.32;;;26.60;66.80;;;;;;5064267;28;20043;-56
2023/01/30 05:26:08;;;;;;;7.15;4.95;;;26.60;66.90;;;;;;5064439;28;20025;-62
2023/01/30 05:28:35;;;;;;;9.52;4.60;;;26.60;66.80;;;;;;5064187;28;20024;-56
2023/01/30 05:31:06;;;;;;;19.33;5.10;;;26.50;66.80;;;;;;5063930;28;20033;-54
2023/01/30 05:33:34;;;;;;;7.97;4.97;;;26.50;66.80;;;;;;5064199;28;20041;-55
2023/01/30 05:36:01;;;;;;;8.25;4.35;;;26.50;66.80;;;;;;5063917;28;20384;-53
2023/01/30 05:38:28;;;;;;;8.55;4.50;;;26.50;66.80;;;;;;5063904;28;20033;-55
2023/01/30 05:41:06;;;;;;;6.80;4.63;;;26.50;66.80;;;;;;5063934;28;20076;-54
2023/01/30 05:43:34;;;;;;;7.95;4.68;;;26.50;66.90;;;;;;5063620;28;20280;-55
2023/01/30 05:46:02;;;;;;;8.20;4.80;;;26.50;66.90;;;;;;5063759;28;20070;-55
2023/01/30 05:48:29;;;;;;;7.57;4.70;;;26.40;66.80;;;;;;5063870;28;20033;-62
2023/01/30 05:50:57;;;;;;;6.70;4.32;;;26.40;66.80;;;;;;5063715;28;20020;-58
2023/01/30 05:53:27;;;;;;;6.53;4.68;;;26.40;66.80;;;;;;5064345;28;20312;-55
2023/01/30 05:56:02;;;;;;;6.03;4.40;;;26.40;66.70;;;;;;5063764;28;20036;-56
2023/01/30 05:58:29;;;;;;;6.13;4.40;;;26.40;66.70;;;;;;5063141;28;20096;-56
2023/01/30 06:01:04;;;;;;;7.82;4.85;;;26.40;66.70;;;;;;5063708;28;20032;-57
2023/01/30 06:03:32;;;;;;;6.80;4.75;;;26.40;66.60;;;;;;5063588;28;20033;-51
2023/01/30 06:06:00;;;;;;;8.40;4.70;;;26.30;66.50;;;;;;5063829;28;20044;-55
2023/01/30 06:08:27;;;;;;;5.72;4.63;;;26.40;66.60;;;;;;5063692;28;20033;-55
2023/01/30 06:10:53;;;;;;;6.07;4.50;;;26.30;66.50;;;;;;5063604;28;20017;-52
2023/01/30 06:13:20;;;;;;;7.70;4.32;;;26.30;66.40;;;;;;5064107;28;20040;-55
2023/01/30 06:15:46;;;;;;;8.20;4.63;;;26.30;66.40;;;;;;5063967;28;20075;-58
2023/01/30 06:18:13;;;;;;;9.00;4.50;;;26.30;66.40;;;;;;5065906;28;20177;-54
2023/01/30 06:20:39;;;;;;;6.28;4.72;;;26.30;66.40;;;;;;5072718;28;20048;-55
2023/01/30 06:23:06;;;;;;;5.65;4.47;;;26.30;66.40;;;;;;5063960;28;20025;-56
2023/01/30 06:25:32;;;;;;;6.10;4.55;;;26.30;66.50;;;;;;5063535;28;20033;-56
2023/01/30 06:27:59;;;;;;;7.35;4.65;;;26.30;66.50;;;;;;5063769;28;20049;-57
2023/01/30 06:30:26;;;;;;;7.68;4.35;;;26.30;66.50;;;;;;5063677;28;20049;-61
2023/01/30 06:32:52;;;;;;;5.55;4.22;;;26.30;66.40;;;;;;5063818;28;20025;-56
2023/01/30 06:35:19;;;;;;;5.10;4.45;;;26.30;66.40;;;;;;5063362;28;20217;-55
2023/01/30 06:37:45;;;;;;;6.80;4.50;;;26.30;66.20;;;;;;5063794;28;20041;-57
2023/01/30 06:40:13;;;;;;;5.93;4.20;;;26.20;66.10;;;;;;5063773;28;20321;-57
2023/01/30 06:42:47;;;;;;;6.82;4.55;;;26.20;66.00;;;;;;5063356;28;20041;-56
2023/01/30 06:45:15;;;;;;;5.65;4.47;;;26.30;66.10;;;;;;5063590;28;20025;-56
2023/01/30 06:47:59;;;;;;;5.97;3.92;;;26.20;66.00;;;;;;5063521;28;20324;-58
2023/01/30 06:50:27;;;;;;;6.93;4.15;;;26.20;65.90;;;;;;5063921;28;20088;-56
2023/01/30 06:52:55;;;;;;;10.73;4.50;;;26.20;65.90;;;;;;5063889;28;20025;-57
2023/01/30 06:55:25;;;;;;;8.15;4.22;;;26.20;65.90;;;;;;5063160;28;20096;-57
2023/01/30 06:58:02;;;;;;;7.43;4.32;;;26.20;65.80;;;;;;5063650;28;20024;-55
2023/01/30 07:00:29;;;;;;;6.20;4.25;;;26.20;65.70;;;;;;5063095;28;20032;-58
2023/01/30 07:02:56;;;;;;;4.47;4.03;;;26.20;65.70;;;;;;5063590;28;20025;-56
2023/01/30 07:05:23;;;;;;;5.07;4.40;;;26.20;65.60;;;;;;5063231;28;20056;-59
2023/01/30 07:07:49;;;;;;;5.45;4.28;;;26.10;65.40;;;;;;5063395;28;20040;-57
2023/01/30 07:10:16;;;;;;;6.05;4.53;;;26.20;65.40;;;;;;5065121;28;20321;-57
2023/01/30 07:12:44;;;;;;;5.55;4.28;;;26.20;65.40;;;;;;5066981;28;20060;-57
2023/01/30 07:15:11;;;;;;;9.27;4.30;;;26.10;65.30;;;;;;5066559;28;20036;-58
2023/01/30 07:17:40;;;;;;;7.55;4.40;;;26.10;65.20;;;;;;5066881;28;20201;-58
2023/01/30 07:20:08;;;;;;;6.75;4.20;;;26.10;65.20;;;;;;5066478;28;20031;-58
2023/01/30 07:22:34;;;;;;;7.72;4.60;;;26.10;65.20;;;;;;5066945;28;20059;-60
2023/01/30 07:25:01;;;;;;;6.65;4.32;;;26.10;65.20;;;;;;5066376;28;20277;-57
2023/01/30 07:27:28;;;;;;;6.40;4.20;;;26.10;65.20;;;;;;5066757;28;20021;-58
2023/01/30 07:29:54;;;;;;;7.00;4.20;;;26.10;65.30;;;;;;5066156;28;20025;-57
2023/01/30 07:32:21;;;;;;;7.38;4.03;;;26.10;65.30;;;;;;5066448;28;20017;-57
2023/01/30 07:34:48;;;;;;;6.35;4.38;;;26.00;65.20;;;;;;5066329;28;20104;-57
2023/01/30 07:37:14;;;;;;;6.82;4.35;;;26.00;65.10;;;;;;5066356;28;20197;-57
2023/01/30 07:39:41;;;;;;;6.10;4.07;;;26.00;65.20;;;;;;5066326;28;20029;-58
2023/01/30 07:42:08;;;;;;;6.43;4.18;;;26.00;65.20;;;;;;5066061;28;20032;-56
2023/01/30 07:44:35;;;;;;;7.20;4.18;;;26.00;65.20;;;;;;5065851;28;20021;-56
2023/01/30 07:47:01;;;;;;;5.95;4.10;;;26.00;65.20;;;;;;5066308;28;20033;-57
2023/01/30 07:49:28;;;;;;;6.30;4.50;;;26.00;65.20;;;;;;5065927;28;20313;-58
2023/01/30 07:51:54;;;;;;;6.25;4.53;;;26.00;65.20;;;;;;5066157;28;20021;-58
2023/01/30 07:54:21;;;;;;;5.45;3.90;;;25.90;65.30;;;;;;5065810;28;20043;-57
2023/01/30 07:56:48;;;;;;;4.93;4.00;;;25.90;65.30;;;;;;5065945;28;20193;-57
2023/01/30 07:59:14;;;;;;;7.20;4.30;;;25.90;65.40;;;;;;5065936;28;20107;-57
2023/01/30 08:01:41;;;;;;;8.82;4.70;;;25.90;65.50;;;;;;5065712;28;20040;-56
2023/01/30 08:04:07;;;;;;;8.82;4.45;;;25.90;65.40;;;;;;5065560;28;20056;-57
2023/01/30 08:06:37;;;;;;;6.47;4.70;;;25.90;65.50;;;;;;5065934;28;20086;-59
2023/01/30 08:09:05;;;;;;;6.28;4.75;;;25.80;65.60;;;;;;5065696;28;20251;-56
2023/01/30 08:11:31;;;;;;;7.22;5.05;;;25.80;65.60;;;;;;5065695;28;20111;-57
2023/01/30 08:13:58;;;;;;;6.57;4.75;;;25.80;65.40;;;;;;5065474;28;20036;-59
2023/01/30 08:16:25;;;;;;;6.75;4.53;;;25.80;65.40;;;;;;5065710;28;20033;-56
2023/01/30 08:18:51;;;;;;;5.85;4.47;;;25.80;65.50;;;;;;5065447;28;20048;-53
2023/01/30 08:21:18;;;;;;;6.75;4.72;;;25.80;65.50;;;;;;5064942;28;20024;-55
2023/01/30 08:23:44;;;;;;;7.05;4.43;;;25.80;65.60;;;;;;5065263;28;20043;-60
2023/01/30 08:26:11;;;;;;;6.65;4.70;;;25.80;65.70;;;;;;5065408;28;20021;-55
2023/01/30 08:28:38;;;;;;;6.72;5.07;;;25.80;65.70;;;;;;5065548;28;20029;-55
2023/01/30 08:31:10;;;;;;;7.15;4.30;;;25.80;65.80;;;;;;5065059;28;20075;-56
2023/01/30 08:33:36;;;;;;;7.28;5.18;;;25.70;65.80;;;;;;5065289;28;20340;-55
2023/01/30 08:36:04;;;;;;;7.38;4.53;;;25.70;65.90;;;;;;5065095;28;20040;-55
2023/01/30 08:38:31;;;;;;;6.47;4.53;;;25.80;66.00;;;;;;5064974;28;20104;-57
2023/01/30 08:40:59;;;;;;;5.70;4.10;;;25.70;65.90;;;;;;5065142;28;20029;-55
2023/01/30 08:43:26;;;;;;;6.47;4.85;;;25.70;65.90;;;;;;5064752;28;20055;-56
2023/01/30 08:45:54;;;;;;;8.48;4.78;;;25.70;66.00;;;;;;5064863;28;20088;-56
2023/01/30 08:48:20;;;;;;;6.43;4.30;;;25.70;65.90;;;;;;5065479;28;20037;-58
2023/01/30 08:50:47;;;;;;;6.15;4.10;;;25.70;65.70;;;;;;5064828;28;20044;-56
2023/01/30 08:53:13;;;;;;;6.18;4.28;;;25.70;65.60;;;;;;5065104;28;20028;-60
2023/01/30 08:55:40;;;;;;;5.95;4.00;;;25.70;65.60;;;;;;5064770;28;20052;-56
2023/01/30 08:58:06;;;;;;;6.88;3.72;;;25.70;65.50;;;;;;5065092;28;20013;-57
2023/01/30 09:00:33;;;;;;;7.20;4.25;;;25.70;65.50;;;;;;5064717;28;20092;-55
2023/01/30 09:03:00;;;;;;;7.22;4.30;;;25.70;65.40;;;;;;5064938;28;20335;-57
2023/01/30 09:05:28;;;;;;;4.90;4.15;;;25.70;65.30;;;;;;5064814;28;20082;-58
2023/01/30 09:07:55;;;;;;;6.35;4.38;;;25.60;65.10;;;;;;5064730;28;20033;-57
2023/01/30 09:10:23;;;;;;;5.28;3.92;;;25.60;65.00;;;;;;5064389;28;20025;-56
2023/01/30 09:12:50;;;;;;;5.80;3.97;;;25.60;64.90;;;;;;5064382;28;20088;-62
2023/01/30 09:15:16;;;;;;;6.30;4.50;;;25.60;65.00;;;;;;5064261;28;20309;-56
2023/01/30 09:17:43;;;;;;;8.40;4.25;;;25.60;65.00;;;;;;5064681;28;20025;-58
2023/01/30 09:20:11;;;;;;;5.38;4.30;;;25.60;65.00;;;;;;5064526;28;20052;-57
2023/01/30 09:22:37;;;;;;;10.45;4.50;;;25.60;65.00;;;;;;5064300;28;20091;-58
2023/01/30 09:25:05;;;;;;;8.07;4.43;;;25.60;65.00;;;;;;5068144;28;20229;-57
2023/01/30 09:27:32;;;;;;;5.93;4.20;;;25.60;65.00;;;;;;5071314;28;20025;-56
2023/01/30 09:29:58;;;;;;;4.90;4.43;;;25.60;65.00;;;;;;5064060;28;20028;-58
2023/01/30 09:32:25;;;;;;;6.95;4.25;;;25.60;65.00;;;;;;5063609;28;20025;-60
2023/01/30 09:34:52;;;;;;;8.02;4.45;;;25.60;65.20;;;;;;5064773;28;20040;-56
2023/01/30 09:37:18;;;;;;;6.35;4.82;;;25.50;65.40;;;;;;5064102;28;20095;-56
2023/01/30 09:39:45;;;;;;;7.50;4.05;;;25.50;65.60;;;;;;5064137;28;20082;-56
2023/01/30 09:42:39;;;;;;;6.15;4.30;;;25.60;65.90;;;;;;5064166;28;20032;-57
2023/01/30 09:45:36;;;;;;;9.48;4.53;;;25.50;66.30;;;;;;5063876;28;20032;-56
2023/01/30 09:48:15;;;;;;;8.02;4.60;;;25.50;66.60;;;;;;5064325;28;20323;-57
2023/01/30 09:51:03;;;;;;;5.65;4.70;;;25.50;66.90;;;;;;5063804;28;20045;-57
2023/01/30 09:54:04;;;;;;;7.78;4.80;;;25.50;67.20;;;;;;5064047;28;20037;-58
2023/01/30 09:56:31;;;;;;;6.15;4.30;;;25.50;67.30;;;;;;5063700;28;20025;-57
2023/01/30 09:59:00;;;;;;;7.53;5.05;;;25.50;67.40;;;;;;5063858;28;20094;-55
2023/01/30 10:01:46;;;;;;;7.72;4.75;;;25.50;67.50;;;;;;5063537;28;20033;-57
2023/01/30 10:04:34;;;;;;;8.48;4.90;;;25.50;67.50;;;;;;5063495;28;20143;-59
2023/01/30 10:07:29;;;;;;;5.95;4.80;;;25.40;67.40;;;;;;5071574;28;20024;-56
2023/01/30 10:10:09;;;;;;;7.60;4.82;;;25.50;67.60;;;;;;5068270;28;20044;-57
2023/01/30 10:13:09;;;;;;;7.82;4.88;;;25.50;67.60;;;;;;5063738;28;20020;-56
2023/01/30 10:16:04;;;;;;;8.80;4.82;;;25.50;67.50;;;;;;5063731;28;20092;-55
2023/01/30 10:18:38;;;;;;;6.68;4.57;;;25.40;67.40;;;;;;5063676;28;20021;-57
2023/01/30 10:21:28;;;;;;;9.57;5.18;;;25.40;67.40;;;;;;5063852;28;20086;-57
2023/01/30 10:24:16;;;;;;;6.75;4.75;;;25.40;67.30;;;;;;5063768;28;20052;-56
2023/01/30 10:26:44;;;;;;;7.07;4.60;;;25.40;67.30;;;;;;5063539;28;20033;-56
2023/01/30 10:29:29;;;;;;;7.90;4.38;;;25.40;67.40;;;;;;5063434;28;20083;-54
2023/01/30 10:32:19;;;;;;;7.45;5.30;;;25.40;67.40;;;;;;5062607;28;20029;-58
2023/01/30 10:34:53;;;;;;;8.43;4.82;;;25.40;67.50;;;;;;5063222;28;20033;-53
2023/01/30 10:37:56;;;;;;;12.68;5.07;;;25.30;67.40;;;;;;5063581;28;20331;-56
2023/01/30 10:41:07;;;;;;;12.40;5.57;;;25.30;67.50;;;;;;5050683;28;20040;-60
2023/01/30 10:44:13;;;;;;;15.23;5.43;;;25.30;67.70;;;;;;5040098;28;20049;-57
2023/01/30 10:46:47;;;;;;;13.95;5.68;;;25.30;67.90;;;;;;5077095;28;20323;-57
2023/01/30 10:49:17;;;;;;;8.48;5.47;;;25.30;68.00;;;;;;5087110;28;20032;-56
2023/01/30 10:51:56;;;;;;;9.98;5.50;;;25.30;68.10;;;;;;5087108;28;20296;-55
2023/01/30 10:54:56;;;;;;;15.25;5.60;;;25.30;68.20;;;;;;5087174;28;20068;-59
2023/01/30 10:57:48;;;;;;;12.90;5.45;;;25.20;68.30;;;;;;5087251;28;20069;-55
2023/01/30 11:00:19;;;;;;;11.45;5.10;;;25.30;68.50;;;;;;5087037;28;20039;-56
2023/01/30 11:02:52;;;;;;;14.20;5.35;;;25.30;68.50;;;;;;5087245;28;20036;-54
2023/01/30 11:05:23;;;;;;;11.90;5.38;;;25.30;68.50;;;;;;5086872;28;20378;-57
2023/01/30 11:07:49;;;;;;;13.30;5.32;;;25.30;68.40;;;;;;5087017;28;20047;-56
2023/01/30 11:10:20;;;;;;;16.85;5.32;;;25.40;68.50;;;;;;5085991;28;20364;-57
2023/01/30 11:12:51;;;;;;;11.30;5.57;;;25.40;68.60;;;;;;5080059;28;20024;-56
2023/01/30 11:15:18;;;;;;;10.10;6.03;;;25.30;68.40;;;;;;5083233;28;20024;-58
2023/01/30 11:17:45;;;;;;;19.27;6.05;;;25.40;68.50;;;;;;5087049;28;20036;-56
2023/01/30 11:20:16;;;;;;;22.70;7.22;;;25.40;68.50;;;;;;5086007;28;20024;-57
2023/01/30 11:22:53;;;;;;;35.72;7.57;;;25.40;68.80;;;;;;5086738;28;20088;-56
2023/01/30 11:25:22;;;;;;;42.70;8.05;;;25.30;68.30;;;;;;5085032;28;20039;-57
2023/01/30 11:28:03;;;;;;;31.77;6.97;;;25.20;68.40;;;;;;5086672;28;20033;-55
2023/01/30 11:30:33;;;;;;;35.10;7.78;;;25.00;68.60;;;;;;5086008;28;20048;-54
2023/01/30 11:33:12;;;;;;;31.38;7.82;;;24.90;69.10;;;;;;5086837;28;20218;-55
2023/01/30 11:36:04;;;;;;;29.92;7.13;;;24.90;69.30;;;;;;5085727;28;20026;-58
2023/01/30 11:38:33;;;;;;;27.30;6.82;;;24.90;69.20;;;;;;5075060;28;20056;-58
2023/01/30 11:41:09;;;;;;;30.15;6.60;;;24.90;69.20;;;;;;5085657;28;20031;-60
2023/01/30 11:43:38;;;;;;;26.20;6.38;;;25.00;69.10;;;;;;5085181;28;20090;-59
2023/01/30 11:46:11;;;;;;;26.15;6.57;;;25.00;69.00;;;;;;5085407;28;20026;-59
2023/01/30 11:49:03;;;;;;;21.00;6.20;;;25.10;68.70;;;;;;5086978;28;20032;-57
2023/01/30 11:51:34;;;;;;;23.55;6.03;;;25.10;68.70;;;;;;5086441;28;20017;-57
2023/01/30 11:54:12;;;;;;;19.73;6.03;;;25.10;68.60;;;;;;5086593;28;20036;-57
2023/01/30 11:56:54;;;;;;;20.35;5.93;;;25.20;68.60;;;;;;5085445;28;20021;-57
2023/01/30 11:59:33;;;;;;;22.52;5.88;;;25.20;68.50;;;;;;5086227;28;20395;-59
2023/01/30 12:02:33;;;;;;;21.00;5.95;;;25.20;68.40;;;;;;5086619;28;20031;-58
2023/01/30 12:05:04;;;;;;;25.02;6.03;;;25.30;68.40;;;;;;5086583;28;20040;-61
2023/01/30 12:07:34;;;;;;;20.83;5.68;;;25.30;68.20;;;;;;5086894;28;20024;-56
2023/01/30 12:10:01;;;;;;;14.88;5.25;;;25.30;68.20;;;;;;5086491;28;20029;-54
2023/01/30 12:13:02;;;;;;;22.55;5.55;;;25.40;68.20;;;;;;5086361;28;20017;-57
2023/01/30 12:15:33;;;;;;;24.70;6.15;;;25.40;68.20;;;;;;5072317;28;20044;-59
2023/01/30 12:18:03;;;;;;;19.15;5.43;;;25.50;68.40;;;;;;5087008;28;20016;-57
2023/01/30 12:20:38;;;;;;;16.95;5.40;;;25.50;68.50;;;;;;5086026;28;20024;-58
2023/01/30 12:23:11;;;;;;;24.17;5.93;;;25.50;68.30;;;;;;5086293;28;20235;-56
2023/01/30 12:26:20;;;;;;;24.38;5.82;;;25.50;68.20;;;;;;5086173;28;20273;-57
2023/01/30 12:29:24;;;;;;;20.63;5.32;;;25.60;68.20;;;;;;5077568;28;20041;-57
2023/01/30 12:32:18;;;;;;;26.17;5.20;;;25.60;68.20;;;;;;5086002;28;20165;-59
2023/01/30 12:34:47;;;;;;;15.80;5.18;;;25.70;68.30;;;;;;5083750;28;20032;-58
2023/01/30 12:37:36;;;;;;;15.65;5.70;;;25.70;68.30;;;;;;5085803;28;20240;-59
2023/01/30 12:40:24;;;;;;;20.15;5.22;;;25.80;68.40;;;;;;5085534;28;20091;-57
2023/01/30 12:43:24;;;;;;;15.82;4.88;;;25.80;68.50;;;;;;5085517;28;20230;-58
2023/01/30 12:46:29;;;;;;;18.85;5.18;;;25.80;68.40;;;;;;5085610;28;20032;-58
2023/01/30 12:49:17;;;;;;;17.45;5.22;;;25.90;68.80;;;;;;5085459;28;20047;-59
2023/01/30 12:52:26;;;;;;;20.75;5.18;;;25.90;68.50;;;;;;5085980;28;20016;-59
2023/01/30 12:55:14;;;;;;;17.10;5.35;;;25.90;68.70;;;;;;5085447;28;20193;-57
2023/01/30 12:58:25;;;;;;;16.67;4.97;;;26.00;68.70;;;;;;5085721;28;20032;-58
2023/01/30 13:01:12;;;;;;;12.40;4.80;;;26.00;68.70;;;;;;5085302;28;20063;-56
2023/01/30 13:03:45;;;;;;;14.05;4.80;;;26.00;68.50;;;;;;5085134;28;20033;-55
2023/01/30 13:06:25;;;;;;;17.95;5.15;;;26.10;69.10;;;;;;5085252;28;20095;-56
2023/01/30 13:09:19;;;;;;;14.25;4.63;;;26.10;68.60;;;;;;5085049;28;20031;-54
2023/01/30 13:11:50;;;;;;;16.67;4.88;;;26.10;68.80;;;;;;5085200;28;20087;-56
2023/01/30 13:14:36;;;;;;;11.25;4.43;;;26.20;68.80;;;;;;5085045;28;20067;-59
2023/01/30 13:17:31;;;;;;;13.57;4.30;;;26.20;68.80;;;;;;5084710;28;20037;-61